Time;durP1;ratioP1;P1;durP2;ratioP2;P2;SDS_P1;SDS_P2;PMS_P1;PMS_P2;Temp;Humidity;BMP_temperature;BMP_pressure;BME280_temperature;BME280_humidity;BME280_pressure;Samples;Min_cycle;Max_cycle;Signal;HPM_P1;HPM_P2
2023/08/27 19:31:05;;;;;;;2.63;2.40;;;20.50;61.00;;;;;;20182;6699;114419;-72
2023/08/27 19:33:41;;;;;;;2.30;2.20;;;20.00;62.10;;;;;;20997;6716;66473;-72
2023/08/27 19:36:16;;;;;;;2.70;2.50;;;19.80;63.00;;;;;;20678;6732;276199;-76
2023/08/27 19:38:53;;;;;;;2.83;2.62;;;20.20;61.70;;;;;;20753;6727;336837;-72
2023/08/27 19:41:34;;;;;;;3.17;2.30;;;20.20;61.40;;;;;;20811;6728;72105;-71
2023/08/27 19:44:02;;;;;;;2.85;2.65;;;20.10;61.50;;;;;;20784;6717;289515;-71
2023/08/27 19:46:27;;;;;;;2.97;2.62;;;20.20;61.10;;;;;;20730;6777;334042;-71
2023/08/27 19:48:56;;;;;;;2.53;2.33;;;20.30;60.40;;;;;;20794;6758;275782;-71
2023/08/27 19:51:21;;;;;;;2.50;2.30;;;20.50;59.80;;;;;;20700;6758;310221;-70
2023/08/27 19:53:47;;;;;;;2.40;2.20;;;20.60;59.20;;;;;;20771;6829;67343;-72
2023/08/27 19:56:12;;;;;;;2.92;2.70;;;20.40;59.90;;;;;;20568;6829;278546;-71
2023/08/27 19:58:38;;;;;;;2.47;2.27;;;20.30;59.80;;;;;;20778;6829;68512;-70
2023/08/27 20:01:03;;;;;;;2.60;2.40;;;20.10;60.40;;;;;;20774;6829;76461;-72
2023/08/27 20:03:29;;;;;;;2.47;1.90;;;19.80;61.20;;;;;;20779;6829;66712;-73
2023/08/27 20:05:57;;;;;;;4.90;2.60;;;19.50;62.00;;;;;;20778;6828;67757;-74
2023/08/27 20:08:20;;;;;;;2.70;2.50;;;19.30;62.60;;;;;;20754;6829;67896;-72
2023/08/27 20:10:46;;;;;;;3.57;2.10;;;19.20;63.00;;;;;;20780;6829;66714;-70
2023/08/27 20:13:11;;;;;;;2.87;2.20;;;19.10;63.40;;;;;;20779;6829;67380;-70
2023/08/27 20:15:37;;;;;;;3.20;2.35;;;19.00;63.80;;;;;;20781;6829;68341;-69
2023/08/27 20:18:03;;;;;;;2.10;2.00;;;18.90;64.20;;;;;;20762;6829;69111;-70
2023/08/27 20:20:29;;;;;;;4.43;2.40;;;18.80;64.60;;;;;;20697;6851;67487;-70
2023/08/27 20:22:54;;;;;;;3.13;2.43;;;18.80;65.00;;;;;;20765;6833;68311;-70
2023/08/27 20:25:20;;;;;;;3.17;2.78;;;18.70;65.20;;;;;;20570;6829;281998;-70
2023/08/27 20:27:46;;;;;;;3.15;2.87;;;19.50;63.70;;;;;;20577;6829;277370;-70
2023/08/27 20:30:12;;;;;;;3.07;2.77;;;19.40;63.60;;;;;;20787;6829;67387;-70
2023/08/27 20:32:37;;;;;;;3.07;2.87;;;19.50;63.60;;;;;;20563;6829;295641;-70
2023/08/27 20:35:03;;;;;;;3.40;2.90;;;19.60;63.10;;;;;;20566;6829;308456;-70
2023/08/27 20:37:28;;;;;;;3.20;2.70;;;19.90;62.30;;;;;;20555;6829;278162;-70
2023/08/27 20:39:54;;;;;;;3.33;2.80;;;20.10;61.70;;;;;;20777;6829;68899;-70
2023/08/27 20:42:20;;;;;;;3.62;3.33;;;20.00;61.90;;;;;;20555;6829;308446;-70
2023/08/27 20:44:45;;;;;;;4.30;2.83;;;20.00;61.50;;;;;;20769;6829;68299;-70
2023/08/27 20:47:12;;;;;;;3.67;3.17;;;19.80;62.00;;;;;;20555;6829;312964;-70
2023/08/27 20:49:36;;;;;;;3.10;2.97;;;19.80;61.90;;;;;;20699;6829;72668;-69
2023/08/27 20:52:03;;;;;;;3.30;3.10;;;19.70;62.20;;;;;;20543;6829;308333;-70
2023/08/27 20:54:28;;;;;;;3.57;3.10;;;19.80;62.00;;;;;;20554;6829;305766;-68
2023/08/27 20:57:37;;;;;;;3.47;3.17;;;20.00;61.40;;;;;;20548;6829;311382;-68
2023/08/27 21:00:04;;;;;;;3.40;3.20;;;20.20;60.90;;;;;;20560;6829;311427;-68
2023/08/27 21:02:28;;;;;;;4.03;3.63;;;20.40;60.50;;;;;;20547;6829;309614;-68
2023/08/27 21:04:53;;;;;;;3.40;3.20;;;20.50;60.20;;;;;;20773;6829;67256;-68
2023/08/27 21:07:19;;;;;;;3.70;3.40;;;20.20;60.80;;;;;;20567;6829;278632;-68
2023/08/27 21:09:47;;;;;;;3.53;3.17;;;20.10;60.70;;;;;;20567;6829;309339;-68
2023/08/27 21:12:14;;;;;;;4.45;3.42;;;20.40;60.60;;;;;;20568;6829;310097;-68
2023/08/27 21:14:39;;;;;;;3.80;3.23;;;20.40;60.20;;;;;;20567;6829;278059;-69
2023/08/27 21:17:06;;;;;;;3.10;2.90;;;20.20;60.50;;;;;;20775;6828;68346;-69
2023/08/27 21:19:32;;;;;;;2.57;2.47;;;20.20;60.50;;;;;;20775;6829;68479;-69
2023/08/27 21:21:58;;;;;;;3.00;2.80;;;19.50;62.30;;;;;;20783;6829;67788;-69
2023/08/27 21:24:23;;;;;;;3.93;2.63;;;19.50;62.30;;;;;;20778;6829;67878;-68
2023/08/27 21:26:49;;;;;;;4.75;3.10;;;19.20;63.10;;;;;;20564;6829;279749;-68
2023/08/27 21:29:15;;;;;;;4.60;2.97;;;19.40;62.80;;;;;;20779;6829;68148;-69
2023/08/27 21:31:40;;;;;;;3.40;2.90;;;19.40;63.00;;;;;;20561;6829;312371;-69
2023/08/27 21:34:06;;;;;;;3.33;3.03;;;19.50;62.50;;;;;;20562;6829;336347;-68
2023/08/27 21:36:32;;;;;;;4.70;2.97;;;19.80;61.90;;;;;;20783;6829;71973;-68
2023/08/27 21:38:57;;;;;;;3.60;3.30;;;19.70;62.10;;;;;;20574;6829;297361;-68
2023/08/27 21:41:23;;;;;;;2.90;2.70;;;19.70;61.60;;;;;;20774;6829;67305;-68
2023/08/27 21:43:48;;;;;;;2.93;2.70;;;19.60;62.10;;;;;;20779;6829;90613;-68
2023/08/27 21:46:14;;;;;;;3.57;3.03;;;19.30;62.70;;;;;;20562;6829;306654;-69
2023/08/27 21:48:40;;;;;;;4.15;3.28;;;19.60;62.20;;;;;;20570;6829;307786;-69
2023/08/27 21:51:06;;;;;;;3.10;2.90;;;19.60;62.10;;;;;;20778;6829;69559;-69
2023/08/27 21:53:31;;;;;;;3.13;2.93;;;19.50;62.40;;;;;;20779;6829;69629;-69
2023/08/27 21:55:57;;;;;;;2.43;2.33;;;19.30;63.40;;;;;;20790;6829;67568;-68
2023/08/27 21:58:22;;;;;;;3.23;2.33;;;19.00;64.10;;;;;;20783;6829;68216;-69
2023/08/27 22:00:48;;;;;;;4.28;3.03;;;18.90;64.80;;;;;;20578;6829;279425;-68
2023/08/27 22:03:13;;;;;;;3.10;2.93;;;19.00;64.00;;;;;;20784;6829;67690;-69
2023/08/27 22:05:39;;;;;;;3.15;2.87;;;19.10;64.00;;;;;;20565;6829;281432;-68
2023/08/27 22:08:05;;;;;;;3.00;2.77;;;19.30;63.60;;;;;;20767;6829;74532;-69
2023/08/27 22:10:32;;;;;;;3.17;2.93;;;19.30;63.00;;;;;;20555;6829;308453;-69
2023/08/27 22:12:57;;;;;;;3.00;2.73;;;19.30;63.00;;;;;;20765;6829;67775;-68
2023/08/27 22:15:22;;;;;;;3.22;2.95;;;19.30;63.10;;;;;;20543;6829;342524;-69
2023/08/27 22:17:48;;;;;;;3.25;2.92;;;19.40;62.70;;;;;;20541;6829;308441;-68
2023/08/27 22:20:13;;;;;;;3.07;2.43;;;19.60;61.80;;;;;;20744;6829;67197;-69
2023/08/27 22:22:39;;;;;;;2.80;2.60;;;19.50;62.10;;;;;;20747;6829;70125;-68
2023/08/27 22:25:05;;;;;;;3.20;2.90;;;19.20;62.90;;;;;;20534;6829;308110;-68
2023/08/27 22:27:30;;;;;;;2.60;2.50;;;19.30;62.60;;;;;;20759;6828;68217;-68
2023/08/27 22:29:56;;;;;;;3.80;2.80;;;19.20;62.90;;;;;;20772;6829;67866;-68
2023/08/27 22:32:21;;;;;;;2.60;2.47;;;19.00;63.50;;;;;;20766;6829;78105;-69
2023/08/27 22:34:48;;;;;;;3.23;2.77;;;18.70;65.20;;;;;;20780;6829;67301;-68
2023/08/27 22:37:13;;;;;;;2.90;2.60;;;18.60;64.50;;;;;;20776;6829;69720;-68
2023/08/27 22:39:39;;;;;;;2.87;2.77;;;18.60;65.70;;;;;;20770;6829;67767;-68
2023/08/27 22:42:04;;;;;;;7.43;2.97;;;18.50;65.50;;;;;;20557;6829;307612;-68
2023/08/27 22:44:30;;;;;;;3.00;2.80;;;18.70;65.10;;;;;;20776;6829;69005;-69
2023/08/27 22:46:55;;;;;;;4.15;2.95;;;18.70;65.00;;;;;;20558;6829;301104;-68
2023/08/27 22:49:21;;;;;;;3.70;3.30;;;18.90;64.00;;;;;;20494;6848;337439;-68
2023/08/27 22:51:46;;;;;;;3.60;3.33;;;19.30;63.00;;;;;;20551;6829;307317;-68
2023/08/27 22:54:12;;;;;;;5.23;2.60;;;19.60;62.10;;;;;;20775;6829;69458;-69
2023/08/27 22:56:38;;;;;;;3.10;2.90;;;19.40;62.30;;;;;;20566;6829;308082;-69
2023/08/27 22:59:03;;;;;;;2.87;2.67;;;19.40;62.00;;;;;;20566;6829;313010;-69
2023/08/27 23:01:29;;;;;;;3.95;2.65;;;19.60;61.50;;;;;;20562;6829;308045;-69
2023/08/27 23:03:54;;;;;;;2.92;2.72;;;19.80;60.90;;;;;;20562;6829;334912;-68
2023/08/27 23:06:21;;;;;;;2.83;2.62;;;20.10;60.00;;;;;;20562;6829;308586;-68
2023/08/27 23:08:46;;;;;;;2.97;2.73;;;20.00;59.80;;;;;;20562;6829;313290;-68
2023/08/27 23:11:12;;;;;;;2.83;2.63;;;20.20;59.50;;;;;;20554;6829;307039;-69
2023/08/27 23:13:37;;;;;;;3.42;2.40;;;20.30;59.10;;;;;;20768;6829;67561;-69
2023/08/27 23:16:03;;;;;;;4.37;2.90;;;20.00;59.70;;;;;;20554;6829;278749;-69
2023/08/27 23:18:29;;;;;;;3.40;3.00;;;19.90;59.90;;;;;;20486;6851;307609;-69
2023/08/27 23:20:54;;;;;;;3.60;2.90;;;20.00;60.00;;;;;;20559;6833;290329;-69
2023/08/27 23:23:20;;;;;;;3.95;2.83;;;20.10;59.80;;;;;;20779;6829;67721;-68
2023/08/27 23:25:46;;;;;;;4.32;2.80;;;19.80;60.20;;;;;;20566;6829;307686;-68
2023/08/27 23:28:13;;;;;;;2.90;2.70;;;19.80;60.30;;;;;;20570;6829;307158;-68
2023/08/27 23:30:37;;;;;;;2.47;2.20;;;19.90;59.90;;;;;;20775;6829;66815;-68
2023/08/27 23:33:03;;;;;;;2.37;2.28;;;19.70;60.30;;;;;;20776;6829;67664;-68
2023/08/27 23:35:29;;;;;;;3.50;2.77;;;19.30;61.20;;;;;;20496;6851;308973;-68
2023/08/27 23:37:54;;;;;;;2.87;2.60;;;19.40;61.10;;;;;;20500;6848;309567;-69
2023/08/27 23:40:20;;;;;;;2.80;2.60;;;19.60;60.70;;;;;;20769;6828;67761;-69
2023/08/27 23:42:46;;;;;;;2.60;2.40;;;19.40;61.10;;;;;;20774;6829;95252;-69
2023/08/27 23:45:11;;;;;;;2.30;2.17;;;19.20;61.80;;;;;;20766;6829;67399;-69
2023/08/27 23:47:36;;;;;;;5.63;2.70;;;18.90;63.10;;;;;;20569;6829;277683;-69
2023/08/27 23:50:02;;;;;;;5.32;2.50;;;19.00;62.10;;;;;;20560;6829;336628;-68
2023/08/27 23:52:27;;;;;;;4.33;2.43;;;19.30;61.30;;;;;;20712;6851;68252;-69
2023/08/27 23:54:53;;;;;;;2.67;2.47;;;19.30;61.50;;;;;;20771;6833;68977;-69
2023/08/27 23:57:19;;;;;;;2.58;2.30;;;19.00;62.00;;;;;;20727;6829;90803;-69
2023/08/27 23:59:44;;;;;;;2.60;2.40;;;18.80;62.80;;;;;;20543;6829;282965;-69
